sensor_id;sensor_type;location;lat;lon;timestamp;P1;durP1;ratioP1;P2;durP2;ratioP2
40314;SDS011;26021;45.640;11.302;2023-02-01T00:01:59;57.60;;;36.17;;
40314;SDS011;26021;45.640;11.302;2023-02-01T00:04:27;62.80;;;37.95;;
40314;SDS011;26021;45.640;11.302;2023-02-01T00:06:58;64.90;;;40.75;;
40314;SDS011;26021;45.640;11.302;2023-02-01T00:09:24;62.92;;;39.25;;
40314;SDS011;26021;45.640;11.302;2023-02-01T00:11:49;65.03;;;40.00;;
40314;SDS011;26021;45.640;11.302;2023-02-01T00:14:14;66.15;;;42.15;;
40314;SDS011;26021;45.640;11.302;2023-02-01T00:16:40;71.22;;;44.53;;
40314;SDS011;26021;45.640;11.302;2023-02-01T00:19:09;72.03;;;44.67;;
40314;SDS011;26021;45.640;11.302;2023-02-01T00:21:36;70.53;;;44.15;;
40314;SDS011;26021;45.640;11.302;2023-02-01T00:24:02;64.45;;;39.55;;
40314;SDS011;26021;45.640;11.302;2023-02-01T00:28:58;55.33;;;37.05;;
40314;SDS011;26021;45.640;11.302;2023-02-01T00:31:24;61.42;;;34.33;;
40314;SDS011;26021;45.640;11.302;2023-02-01T00:33:50;55.03;;;34.58;;
40314;SDS011;26021;45.640;11.302;2023-02-01T00:36:15;68.72;;;41.78;;
40314;SDS011;26021;45.640;11.302;2023-02-01T00:38:41;58.47;;;34.50;;
40314;SDS011;26021;45.640;11.302;2023-02-01T00:41:09;63.15;;;39.50;;
40314;SDS011;26021;45.640;11.302;2023-02-01T00:43:40;67.65;;;42.03;;
40314;SDS011;26021;45.640;11.302;2023-02-01T00:46:06;73.80;;;46.20;;
40314;SDS011;26021;45.640;11.302;2023-02-01T00:48:32;75.85;;;44.53;;
40314;SDS011;26021;45.640;11.302;2023-02-01T00:51:02;71.97;;;43.53;;
40314;SDS011;26021;45.640;11.302;2023-02-01T00:53:39;71.03;;;43.15;;
40314;SDS011;26021;45.640;11.302;2023-02-01T00:56:04;66.90;;;39.13;;
40314;SDS011;26021;45.640;11.302;2023-02-01T00:58:30;70.93;;;40.72;;
40314;SDS011;26021;45.640;11.302;2023-02-01T01:01:00;59.75;;;36.67;;
40314;SDS011;26021;45.640;11.302;2023-02-01T01:03:27;67.40;;;41.85;;
40314;SDS011;26021;45.640;11.302;2023-02-01T01:05:56;59.38;;;36.53;;
40314;SDS011;26021;45.640;11.302;2023-02-01T01:08:22;61.70;;;37.58;;
40314;SDS011;26021;45.640;11.302;2023-02-01T01:10:48;65.53;;;39.55;;
40314;SDS011;26021;45.640;11.302;2023-02-01T01:13:14;68.43;;;42.05;;
40314;SDS011;26021;45.640;11.302;2023-02-01T01:15:40;80.20;;;47.40;;
40314;SDS011;26021;45.640;11.302;2023-02-01T01:18:06;83.53;;;50.33;;
40314;SDS011;26021;45.640;11.302;2023-02-01T01:20:33;86.38;;;48.47;;
40314;SDS011;26021;45.640;11.302;2023-02-01T01:23:00;87.72;;;50.00;;
40314;SDS011;26021;45.640;11.302;2023-02-01T01:25:25;84.72;;;48.85;;
40314;SDS011;26021;45.640;11.302;2023-02-01T01:27:51;86.53;;;50.95;;
40314;SDS011;26021;45.640;11.302;2023-02-01T01:30:16;77.35;;;49.35;;
40314;SDS011;26021;45.640;11.302;2023-02-01T01:32:42;84.85;;;48.35;;
40314;SDS011;26021;45.640;11.302;2023-02-01T01:35:08;80.22;;;48.13;;
40314;SDS011;26021;45.640;11.302;2023-02-01T01:37:34;84.45;;;49.55;;
40314;SDS011;26021;45.640;11.302;2023-02-01T01:40:01;91.82;;;52.38;;
40314;SDS011;26021;45.640;11.302;2023-02-01T01:42:27;94.68;;;55.38;;
40314;SDS011;26021;45.640;11.302;2023-02-01T01:45:00;94.30;;;54.17;;
40314;SDS011;26021;45.640;11.302;2023-02-01T01:47:33;86.30;;;52.20;;
40314;SDS011;26021;45.640;11.302;2023-02-01T01:50:05;95.28;;;51.58;;
40314;SDS011;26021;45.640;11.302;2023-02-01T01:52:33;90.53;;;52.45;;
40314;SDS011;26021;45.640;11.302;2023-02-01T01:54:59;87.28;;;50.72;;
40314;SDS011;26021;45.640;11.302;2023-02-01T01:57:27;86.15;;;52.28;;
40314;SDS011;26021;45.640;11.302;2023-02-01T02:00:08;87.35;;;50.35;;
40314;SDS011;26021;45.640;11.302;2023-02-01T02:02:41;93.82;;;55.40;;
40314;SDS011;26021;45.640;11.302;2023-02-01T02:05:10;91.57;;;57.53;;
40314;SDS011;26021;45.640;11.302;2023-02-01T02:07:37;91.35;;;56.00;;
40314;SDS011;26021;45.640;11.302;2023-02-01T02:10:06;99.50;;;55.58;;
40314;SDS011;26021;45.640;11.302;2023-02-01T02:12:37;94.50;;;53.20;;
40314;SDS011;26021;45.640;11.302;2023-02-01T02:15:05;91.40;;;55.92;;
40314;SDS011;26021;45.640;11.302;2023-02-01T02:39:51;94.90;;;56.40;;
40314;SDS011;26021;45.640;11.302;2023-02-01T02:42:29;91.78;;;54.47;;
40314;SDS011;26021;45.640;11.302;2023-02-01T02:45:20;75.55;;;47.38;;
40314;SDS011;26021;45.640;11.302;2023-02-01T02:48:13;88.93;;;52.13;;
40314;SDS011;26021;45.640;11.302;2023-02-01T02:50:55;87.45;;;53.05;;
40314;SDS011;26021;45.640;11.302;2023-02-01T02:53:51;87.82;;;54.10;;
40314;SDS011;26021;45.640;11.302;2023-02-01T02:56:41;94.00;;;54.00;;
40314;SDS011;26021;45.640;11.302;2023-02-01T02:59:25;92.07;;;54.70;;
40314;SDS011;26021;45.640;11.302;2023-02-01T03:02:12;92.95;;;54.38;;
40314;SDS011;26021;45.640;11.302;2023-02-01T03:04:57;95.93;;;55.53;;
40314;SDS011;26021;45.640;11.302;2023-02-01T03:10:40;96.88;;;55.58;;
40314;SDS011;26021;45.640;11.302;2023-02-01T03:13:38;95.43;;;56.08;;
40314;SDS011;26021;45.640;11.302;2023-02-01T03:16:07;94.72;;;56.25;;
40314;SDS011;26021;45.640;11.302;2023-02-01T03:21:23;87.40;;;53.90;;
40314;SDS011;26021;45.640;11.302;2023-02-01T03:23:56;85.47;;;51.20;;
40314;SDS011;26021;45.640;11.302;2023-02-01T03:26:28;86.80;;;50.60;;
40314;SDS011;26021;45.640;11.302;2023-02-01T03:29:00;94.97;;;52.72;;
40314;SDS011;26021;45.640;11.302;2023-02-01T03:31:49;96.10;;;55.43;;
40314;SDS011;26021;45.640;11.302;2023-02-01T03:34:16;97.70;;;54.88;;
40314;SDS011;26021;45.640;11.302;2023-02-01T03:39:38;89.35;;;55.45;;
40314;SDS011;26021;45.640;11.302;2023-02-01T03:42:27;92.80;;;53.97;;
40314;SDS011;26021;45.640;11.302;2023-02-01T03:47:28;94.07;;;51.03;;
40314;SDS011;26021;45.640;11.302;2023-02-01T03:50:03;86.50;;;50.03;;
40314;SDS011;26021;45.640;11.302;2023-02-01T03:52:39;81.57;;;49.53;;
40314;SDS011;26021;45.640;11.302;2023-02-01T03:55:08;91.00;;;50.95;;
40314;SDS011;26021;45.640;11.302;2023-02-01T03:57:37;88.30;;;51.58;;
40314;SDS011;26021;45.640;11.302;2023-02-01T04:00:25;84.57;;;49.90;;
40314;SDS011;26021;45.640;11.302;2023-02-01T04:02:51;81.20;;;48.10;;
40314;SDS011;26021;45.640;11.302;2023-02-01T04:05:17;76.38;;;45.42;;
40314;SDS011;26021;45.640;11.302;2023-02-01T04:07:43;85.70;;;49.35;;
40314;SDS011;26021;45.640;11.302;2023-02-01T04:10:09;84.28;;;48.35;;
40314;SDS011;26021;45.640;11.302;2023-02-01T04:12:35;96.20;;;55.35;;
40314;SDS011;26021;45.640;11.302;2023-02-01T04:15:01;93.45;;;52.30;;
40314;SDS011;26021;45.640;11.302;2023-02-01T04:17:27;83.18;;;47.63;;
40314;SDS011;26021;45.640;11.302;2023-02-01T04:19:52;77.28;;;43.13;;
40314;SDS011;26021;45.640;11.302;2023-02-01T04:22:18;82.45;;;47.22;;
40314;SDS011;26021;45.640;11.302;2023-02-01T04:24:43;83.97;;;48.50;;
40314;SDS011;26021;45.640;11.302;2023-02-01T04:27:09;83.13;;;46.58;;
40314;SDS011;26021;45.640;11.302;2023-02-01T04:29:34;77.70;;;45.70;;
40314;SDS011;26021;45.640;11.302;2023-02-01T04:31:59;80.43;;;45.30;;
40314;SDS011;26021;45.640;11.302;2023-02-01T04:34:25;78.18;;;44.53;;
40314;SDS011;26021;45.640;11.302;2023-02-01T04:36:53;79.28;;;44.45;;
40314;SDS011;26021;45.640;11.302;2023-02-01T04:39:20;74.05;;;44.15;;
40314;SDS011;26021;45.640;11.302;2023-02-01T04:41:45;79.50;;;44.55;;
40314;SDS011;26021;45.640;11.302;2023-02-01T04:44:14;75.45;;;43.70;;
40314;SDS011;26021;45.640;11.302;2023-02-01T04:46:41;80.88;;;44.55;;
40314;SDS011;26021;45.640;11.302;2023-02-01T04:49:08;77.38;;;42.75;;
40314;SDS011;26021;45.640;11.302;2023-02-01T04:51:34;68.57;;;42.28;;
40314;SDS011;26021;45.640;11.302;2023-02-01T04:53:59;68.97;;;40.08;;
40314;SDS011;26021;45.640;11.302;2023-02-01T04:56:25;70.13;;;40.28;;
40314;SDS011;26021;45.640;11.302;2023-02-01T04:58:50;72.20;;;41.35;;
40314;SDS011;26021;45.640;11.302;2023-02-01T05:01:16;72.68;;;40.10;;
40314;SDS011;26021;45.640;11.302;2023-02-01T05:03:41;72.88;;;42.03;;
40314;SDS011;26021;45.640;11.302;2023-02-01T05:06:07;72.18;;;40.90;;
40314;SDS011;26021;45.640;11.302;2023-02-01T05:08:32;87.10;;;48.47;;
40314;SDS011;26021;45.640;11.302;2023-02-01T05:10:58;79.65;;;42.72;;
40314;SDS011;26021;45.640;11.302;2023-02-01T05:13:24;85.95;;;46.58;;
40314;SDS011;26021;45.640;11.302;2023-02-01T05:16:08;83.93;;;45.20;;
40314;SDS011;26021;45.640;11.302;2023-02-01T05:18:34;71.22;;;41.40;;
40314;SDS011;26021;45.640;11.302;2023-02-01T05:20:59;67.57;;;39.33;;
40314;SDS011;26021;45.640;11.302;2023-02-01T05:23:25;75.07;;;41.30;;
40314;SDS011;26021;45.640;11.302;2023-02-01T05:25:51;74.82;;;39.80;;
40314;SDS011;26021;45.640;11.302;2023-02-01T05:28:16;75.90;;;40.75;;
40314;SDS011;26021;45.640;11.302;2023-02-01T05:30:42;78.43;;;40.58;;
40314;SDS011;26021;45.640;11.302;2023-02-01T05:33:07;67.30;;;38.65;;
40314;SDS011;26021;45.640;11.302;2023-02-01T05:35:33;72.00;;;39.15;;
40314;SDS011;26021;45.640;11.302;2023-02-01T05:37:58;69.60;;;37.95;;
40314;SDS011;26021;45.640;11.302;2023-02-01T05:40:24;70.30;;;39.15;;
40314;SDS011;26021;45.640;11.302;2023-02-01T05:42:49;81.20;;;43.47;;
40314;SDS011;26021;45.640;11.302;2023-02-01T05:45:15;82.80;;;41.05;;
40314;SDS011;26021;45.640;11.302;2023-02-01T05:47:40;71.40;;;40.63;;
40314;SDS011;26021;45.640;11.302;2023-02-01T05:50:06;67.35;;;38.25;;
40314;SDS011;26021;45.640;11.302;2023-02-01T05:52:32;69.45;;;39.03;;
40314;SDS011;26021;45.640;11.302;2023-02-01T05:54:57;71.68;;;39.67;;
40314;SDS011;26021;45.640;11.302;2023-02-01T05:57:23;69.55;;;37.70;;
40314;SDS011;26021;45.640;11.302;2023-02-01T05:59:48;74.75;;;37.70;;
40314;SDS011;26021;45.640;11.302;2023-02-01T06:02:19;70.13;;;39.55;;
40314;SDS011;26021;45.640;11.302;2023-02-01T06:04:50;74.13;;;38.75;;
40314;SDS011;26021;45.640;11.302;2023-02-01T06:07:16;67.93;;;38.88;;
40314;SDS011;26021;45.640;11.302;2023-02-01T06:09:42;68.05;;;38.80;;
40314;SDS011;26021;45.640;11.302;2023-02-01T06:12:07;68.88;;;36.45;;
40314;SDS011;26021;45.640;11.302;2023-02-01T06:14:33;70.65;;;39.03;;
40314;SDS011;26021;45.640;11.302;2023-02-01T06:16:59;70.63;;;37.83;;
40314;SDS011;26021;45.640;11.302;2023-02-01T06:19:24;67.90;;;38.67;;
40314;SDS011;26021;45.640;11.302;2023-02-01T06:21:50;71.75;;;38.05;;
40314;SDS011;26021;45.640;11.302;2023-02-01T06:24:15;73.85;;;38.42;;
40314;SDS011;26021;45.640;11.302;2023-02-01T06:26:41;75.30;;;37.95;;
40314;SDS011;26021;45.640;11.302;2023-02-01T06:29:07;79.53;;;39.75;;
40314;SDS011;26021;45.640;11.302;2023-02-01T06:31:35;85.60;;;43.35;;
40314;SDS011;26021;45.640;11.302;2023-02-01T06:34:00;77.40;;;42.13;;
40314;SDS011;26021;45.640;11.302;2023-02-01T06:36:28;72.55;;;42.85;;
40314;SDS011;26021;45.640;11.302;2023-02-01T06:38:53;75.93;;;39.70;;
40314;SDS011;26021;45.640;11.302;2023-02-01T06:41:22;72.38;;;39.25;;
40314;SDS011;26021;45.640;11.302;2023-02-01T06:43:48;73.13;;;39.70;;
40314;SDS011;26021;45.640;11.302;2023-02-01T06:46:14;74.20;;;39.28;;
40314;SDS011;26021;45.640;11.302;2023-02-01T06:48:39;75.93;;;38.58;;
40314;SDS011;26021;45.640;11.302;2023-02-01T06:51:05;72.05;;;39.42;;
40314;SDS011;26021;45.640;11.302;2023-02-01T06:53:31;74.60;;;40.03;;
40314;SDS011;26021;45.640;11.302;2023-02-01T06:55:58;77.43;;;41.47;;
40314;SDS011;26021;45.640;11.302;2023-02-01T06:58:27;85.90;;;43.75;;
40314;SDS011;26021;45.640;11.302;2023-02-01T07:00:57;79.30;;;44.72;;
40314;SDS011;26021;45.640;11.302;2023-02-01T07:03:23;75.88;;;40.95;;
40314;SDS011;26021;45.640;11.302;2023-02-01T07:05:49;78.95;;;42.50;;
40314;SDS011;26021;45.640;11.302;2023-02-01T07:08:14;67.43;;;38.00;;
40314;SDS011;26021;45.640;11.302;2023-02-01T07:10:40;73.20;;;38.75;;
40314;SDS011;26021;45.640;11.302;2023-02-01T07:13:05;70.20;;;38.08;;
40314;SDS011;26021;45.640;11.302;2023-02-01T07:15:31;70.18;;;38.97;;
40314;SDS011;26021;45.640;11.302;2023-02-01T07:17:57;69.75;;;37.95;;
40314;SDS011;26021;45.640;11.302;2023-02-01T07:20:22;78.25;;;39.30;;
40314;SDS011;26021;45.640;11.302;2023-02-01T07:22:48;76.30;;;40.50;;
40314;SDS011;26021;45.640;11.302;2023-02-01T07:25:14;68.25;;;37.25;;
40314;SDS011;26021;45.640;11.302;2023-02-01T07:27:39;67.03;;;38.20;;
40314;SDS011;26021;45.640;11.302;2023-02-01T07:30:05;64.70;;;35.42;;
40314;SDS011;26021;45.640;11.302;2023-02-01T07:32:31;75.07;;;38.50;;
40314;SDS011;26021;45.640;11.302;2023-02-01T07:34:57;76.07;;;41.17;;
40314;SDS011;26021;45.640;11.302;2023-02-01T07:37:23;81.25;;;42.78;;
40314;SDS011;26021;45.640;11.302;2023-02-01T07:39:52;77.00;;;42.08;;
40314;SDS011;26021;45.640;11.302;2023-02-01T07:42:17;73.50;;;40.00;;
40314;SDS011;26021;45.640;11.302;2023-02-01T07:44:43;75.75;;;42.22;;
40314;SDS011;26021;45.640;11.302;2023-02-01T07:47:09;70.43;;;39.40;;
40314;SDS011;26021;45.640;11.302;2023-02-01T07:49:34;76.45;;;41.88;;
40314;SDS011;26021;45.640;11.302;2023-02-01T07:52:00;78.20;;;41.47;;
40314;SDS011;26021;45.640;11.302;2023-02-01T07:54:25;73.07;;;40.67;;
40314;SDS011;26021;45.640;11.302;2023-02-01T07:56:51;134.52;;;72.70;;
40314;SDS011;26021;45.640;11.302;2023-02-01T07:59:16;143.52;;;82.88;;
40314;SDS011;26021;45.640;11.302;2023-02-01T08:01:42;147.45;;;73.18;;
40314;SDS011;26021;45.640;11.302;2023-02-01T08:04:09;96.80;;;51.67;;
40314;SDS011;26021;45.640;11.302;2023-02-01T08:06:37;76.93;;;44.40;;
40314;SDS011;26021;45.640;11.302;2023-02-01T08:09:03;78.20;;;43.38;;
40314;SDS011;26021;45.640;11.302;2023-02-01T08:11:29;70.75;;;40.10;;
40314;SDS011;26021;45.640;11.302;2023-02-01T08:13:55;74.70;;;41.22;;
40314;SDS011;26021;45.640;11.302;2023-02-01T08:16:21;69.65;;;39.60;;
40314;SDS011;26021;45.640;11.302;2023-02-01T08:18:48;64.95;;;36.95;;
40314;SDS011;26021;45.640;11.302;2023-02-01T08:21:21;66.75;;;37.28;;
40314;SDS011;26021;45.640;11.302;2023-02-01T08:23:48;71.65;;;39.30;;
40314;SDS011;26021;45.640;11.302;2023-02-01T08:28:47;70.22;;;39.35;;
40314;SDS011;26021;45.640;11.302;2023-02-01T08:31:15;64.28;;;38.55;;
40314;SDS011;26021;45.640;11.302;2023-02-01T08:33:43;74.32;;;43.85;;
40314;SDS011;26021;45.640;11.302;2023-02-01T08:36:13;72.50;;;42.10;;
40314;SDS011;26021;45.640;11.302;2023-02-01T08:38:39;70.15;;;40.05;;
40314;SDS011;26021;45.640;11.302;2023-02-01T08:41:06;63.53;;;37.85;;
40314;SDS011;26021;45.640;11.302;2023-02-01T08:43:32;69.45;;;40.13;;
40314;SDS011;26021;45.640;11.302;2023-02-01T08:45:58;63.63;;;36.17;;
40314;SDS011;26021;45.640;11.302;2023-02-01T08:48:23;63.35;;;37.85;;
40314;SDS011;26021;45.640;11.302;2023-02-01T08:50:49;67.53;;;38.22;;
40314;SDS011;26021;45.640;11.302;2023-02-01T08:53:14;64.95;;;39.03;;
40314;SDS011;26021;45.640;11.302;2023-02-01T08:55:40;63.60;;;39.90;;
40314;SDS011;26021;45.640;11.302;2023-02-01T08:58:06;71.30;;;40.08;;
40314;SDS011;26021;45.640;11.302;2023-02-01T09:00:31;79.30;;;41.70;;
40314;SDS011;26021;45.640;11.302;2023-02-01T09:02:57;71.07;;;41.42;;
40314;SDS011;26021;45.640;11.302;2023-02-01T09:05:23;70.00;;;39.22;;
40314;SDS011;26021;45.640;11.302;2023-02-01T09:07:51;66.10;;;38.17;;
40314;SDS011;26021;45.640;11.302;2023-02-01T09:10:17;66.50;;;39.00;;
40314;SDS011;26021;45.640;11.302;2023-02-01T09:12:43;69.97;;;41.90;;
40314;SDS011;26021;45.640;11.302;2023-02-01T09:15:08;77.43;;;42.97;;
40314;SDS011;26021;45.640;11.302;2023-02-01T09:17:34;77.50;;;46.13;;
40314;SDS011;26021;45.640;11.302;2023-02-01T09:19:59;75.78;;;45.25;;
40314;SDS011;26021;45.640;11.302;2023-02-01T09:22:25;70.53;;;41.67;;
40314;SDS011;26021;45.640;11.302;2023-02-01T09:24:51;71.90;;;40.55;;
40314;SDS011;26021;45.640;11.302;2023-02-01T09:27:18;69.63;;;41.20;;
40314;SDS011;26021;45.640;11.302;2023-02-01T09:29:43;69.57;;;38.97;;
40314;SDS011;26021;45.640;11.302;2023-02-01T09:32:09;64.88;;;37.45;;
40314;SDS011;26021;45.640;11.302;2023-02-01T09:34:34;65.07;;;38.28;;
40314;SDS011;26021;45.640;11.302;2023-02-01T09:37:00;68.18;;;41.42;;
40314;SDS011;26021;45.640;11.302;2023-02-01T09:39:26;72.60;;;42.03;;
40314;SDS011;26021;45.640;11.302;2023-02-01T09:42:11;72.93;;;42.28;;
40314;SDS011;26021;45.640;11.302;2023-02-01T09:47:20;78.07;;;44.97;;
40314;SDS011;26021;45.640;11.302;2023-02-01T09:49:59;77.97;;;45.45;;
40314;SDS011;26021;45.640;11.302;2023-02-01T09:52:38;83.88;;;47.78;;
40314;SDS011;26021;45.640;11.302;2023-02-01T10:01:42;86.90;;;49.42;;
40314;SDS011;26021;45.640;11.302;2023-02-01T10:04:09;91.82;;;53.10;;
40314;SDS011;26021;45.640;11.302;2023-02-01T10:18:05;94.10;;;53.72;;
40314;SDS011;26021;45.640;11.302;2023-02-01T10:28:56;84.00;;;51.33;;
40314;SDS011;26021;45.640;11.302;2023-02-01T10:31:24;101.82;;;54.25;;
40314;SDS011;26021;45.640;11.302;2023-02-01T10:34:00;91.60;;;53.85;;
40314;SDS011;26021;45.640;11.302;2023-02-01T10:36:41;92.70;;;53.33;;
40314;SDS011;26021;45.640;11.302;2023-02-01T10:39:14;95.95;;;54.33;;
40314;SDS011;26021;45.640;11.302;2023-02-01T10:41:40;97.80;;;54.00;;
40314;SDS011;26021;45.640;11.302;2023-02-01T10:44:10;93.25;;;53.15;;
40314;SDS011;26021;45.640;11.302;2023-02-01T10:46:57;96.05;;;53.75;;
40314;SDS011;26021;45.640;11.302;2023-02-01T10:49:32;89.78;;;53.20;;
40314;SDS011;26021;45.640;11.302;2023-02-01T10:52:13;90.25;;;51.35;;
40314;SDS011;26021;45.640;11.302;2023-02-01T10:54:42;90.80;;;53.25;;
40314;SDS011;26021;45.640;11.302;2023-02-01T10:57:19;90.30;;;53.45;;
40314;SDS011;26021;45.640;11.302;2023-02-01T10:59:50;92.10;;;53.97;;
40314;SDS011;26021;45.640;11.302;2023-02-01T11:02:27;89.85;;;53.95;;
40314;SDS011;26021;45.640;11.302;2023-02-01T11:05:03;89.90;;;53.30;;
40314;SDS011;26021;45.640;11.302;2023-02-01T11:07:33;93.40;;;54.97;;
40314;SDS011;26021;45.640;11.302;2023-02-01T11:09:59;89.20;;;54.40;;
40314;SDS011;26021;45.640;11.302;2023-02-01T11:12:35;93.18;;;55.03;;
40314;SDS011;26021;45.640;11.302;2023-02-01T11:17:39;89.60;;;54.25;;
40314;SDS011;26021;45.640;11.302;2023-02-01T11:20:15;91.85;;;55.05;;
40314;SDS011;26021;45.640;11.302;2023-02-01T11:22:46;94.93;;;56.88;;
40314;SDS011;26021;45.640;11.302;2023-02-01T11:25:13;92.18;;;55.38;;
40314;SDS011;26021;45.640;11.302;2023-02-01T11:27:41;92.18;;;56.15;;
40314;SDS011;26021;45.640;11.302;2023-02-01T11:30:07;90.13;;;53.17;;
40314;SDS011;26021;45.640;11.302;2023-02-01T11:33:05;92.88;;;55.03;;
40314;SDS011;26021;45.640;11.302;2023-02-01T11:35:32;107.85;;;68.65;;
40314;SDS011;26021;45.640;11.302;2023-02-01T11:38:09;95.55;;;56.58;;
40314;SDS011;26021;45.640;11.302;2023-02-01T11:40:44;95.75;;;56.72;;
40314;SDS011;26021;45.640;11.302;2023-02-01T11:43:13;93.20;;;54.08;;
40314;SDS011;26021;45.640;11.302;2023-02-01T11:45:54;90.53;;;54.92;;
40314;SDS011;26021;45.640;11.302;2023-02-01T11:48:23;98.20;;;58.15;;
40314;SDS011;26021;45.640;11.302;2023-02-01T11:56:42;100.75;;;59.45;;
40314;SDS011;26021;45.640;11.302;2023-02-01T12:07:00;103.80;;;60.40;;
40314;SDS011;26021;45.640;11.302;2023-02-01T12:12:31;102.15;;;61.35;;
40314;SDS011;26021;45.640;11.302;2023-02-01T12:25:55;89.60;;;56.13;;
40314;SDS011;26021;45.640;11.302;2023-02-01T12:31:25;107.70;;;62.92;;
40314;SDS011;26021;45.640;11.302;2023-02-01T12:44:40;102.07;;;61.63;;
40314;SDS011;26021;45.640;11.302;2023-02-01T12:47:28;103.97;;;60.63;;
40314;SDS011;26021;45.640;11.302;2023-02-01T12:50:42;101.88;;;59.85;;
40314;SDS011;26021;45.640;11.302;2023-02-01T12:52:55;105.90;;;61.85;;
40314;SDS011;26021;45.640;11.302;2023-02-01T12:55:34;100.10;;;62.08;;
40314;SDS011;26021;45.640;11.302;2023-02-01T12:58:09;105.60;;;63.30;;
40314;SDS011;26021;45.640;11.302;2023-02-01T13:00:49;107.53;;;63.75;;
40314;SDS011;26021;45.640;11.302;2023-02-01T13:05:51;105.88;;;62.03;;
40314;SDS011;26021;45.640;11.302;2023-02-01T13:08:38;104.38;;;62.70;;
40314;SDS011;26021;45.640;11.302;2023-02-01T13:11:07;105.68;;;62.70;;
40314;SDS011;26021;45.640;11.302;2023-02-01T13:13:48;103.88;;;62.42;;
40314;SDS011;26021;45.640;11.302;2023-02-01T13:16:24;103.72;;;64.22;;
40314;SDS011;26021;45.640;11.302;2023-02-01T13:19:06;96.60;;;60.05;;
40314;SDS011;26021;45.640;11.302;2023-02-01T13:21:39;106.22;;;63.35;;
40314;SDS011;26021;45.640;11.302;2023-02-01T13:24:19;103.82;;;64.05;;
40314;SDS011;26021;45.640;11.302;2023-02-01T13:27:02;103.78;;;65.28;;
40314;SDS011;26021;45.640;11.302;2023-02-01T13:29:28;105.28;;;63.50;;
40314;SDS011;26021;45.640;11.302;2023-02-01T13:31:58;109.15;;;66.22;;
40314;SDS011;26021;45.640;11.302;2023-02-01T13:37:54;108.70;;;64.70;;
40314;SDS011;26021;45.640;11.302;2023-02-01T13:40:17;103.90;;;62.92;;
40314;SDS011;26021;45.640;11.302;2023-02-01T13:45:50;109.70;;;63.85;;
40314;SDS011;26021;45.640;11.302;2023-02-01T13:48:28;103.43;;;63.53;;
40314;SDS011;26021;45.640;11.302;2023-02-01T13:50:58;110.85;;;64.20;;
40314;SDS011;26021;45.640;11.302;2023-02-01T13:53:34;96.80;;;62.60;;
40314;SDS011;26021;45.640;11.302;2023-02-01T13:56:15;105.90;;;63.00;;
40314;SDS011;26021;45.640;11.302;2023-02-01T13:58:43;110.57;;;67.13;;
40314;SDS011;26021;45.640;11.302;2023-02-01T14:06:15;104.10;;;63.65;;
40314;SDS011;26021;45.640;11.302;2023-02-01T14:14:47;107.75;;;65.88;;
40314;SDS011;26021;45.640;11.302;2023-02-01T14:19:28;104.68;;;62.88;;
40314;SDS011;26021;45.640;11.302;2023-02-01T14:22:00;107.57;;;65.65;;
40314;SDS011;26021;45.640;11.302;2023-02-01T14:24:53;112.32;;;66.68;;
40314;SDS011;26021;45.640;11.302;2023-02-01T14:27:21;111.32;;;66.45;;
40314;SDS011;26021;45.640;11.302;2023-02-01T14:29:56;116.18;;;70.95;;
40314;SDS011;26021;45.640;11.302;2023-02-01T14:34:54;126.18;;;71.82;;
40314;SDS011;26021;45.640;11.302;2023-02-01T14:37:31;123.28;;;75.25;;
40314;SDS011;26021;45.640;11.302;2023-02-01T14:47:43;119.53;;;71.07;;
40314;SDS011;26021;45.640;11.302;2023-02-01T15:07:03;139.20;;;78.47;;
40314;SDS011;26021;45.640;11.302;2023-02-01T15:09:21;143.10;;;77.85;;
40314;SDS011;26021;45.640;11.302;2023-02-01T15:11:59;112.88;;;69.38;;
40314;SDS011;26021;45.640;11.302;2023-02-01T15:14:28;110.50;;;67.18;;
40314;SDS011;26021;45.640;11.302;2023-02-01T15:17:01;125.70;;;72.57;;
40314;SDS011;26021;45.640;11.302;2023-02-01T15:19:27;130.80;;;74.30;;
40314;SDS011;26021;45.640;11.302;2023-02-01T15:21:56;147.23;;;80.80;;
40314;SDS011;26021;45.640;11.302;2023-02-01T15:24:26;112.47;;;69.03;;
40314;SDS011;26021;45.640;11.302;2023-02-01T15:26:55;155.45;;;112.95;;
40314;SDS011;26021;45.640;11.302;2023-02-01T15:29:28;337.93;;;242.50;;
40314;SDS011;26021;45.640;11.302;2023-02-01T15:31:57;152.07;;;95.15;;
40314;SDS011;26021;45.640;11.302;2023-02-01T15:34:23;139.25;;;95.70;;
40314;SDS011;26021;45.640;11.302;2023-02-01T15:37:11;122.75;;;76.82;;
40314;SDS011;26021;45.640;11.302;2023-02-01T15:40:02;147.05;;;91.00;;
40314;SDS011;26021;45.640;11.302;2023-02-01T15:42:34;145.65;;;86.57;;
40314;SDS011;26021;45.640;11.302;2023-02-01T15:45:00;157.50;;;104.72;;
40314;SDS011;26021;45.640;11.302;2023-02-01T15:47:27;151.48;;;92.15;;
40314;SDS011;26021;45.640;11.302;2023-02-01T15:49:56;163.95;;;97.53;;
40314;SDS011;26021;45.640;11.302;2023-02-01T15:55:06;125.28;;;81.75;;
40314;SDS011;26021;45.640;11.302;2023-02-01T15:57:42;144.68;;;87.60;;
40314;SDS011;26021;45.640;11.302;2023-02-01T16:00:21;139.70;;;83.45;;
40314;SDS011;26021;45.640;11.302;2023-02-01T16:02:58;151.52;;;88.15;;
40314;SDS011;26021;45.640;11.302;2023-02-01T16:05:27;147.07;;;85.47;;
40314;SDS011;26021;45.640;11.302;2023-02-01T16:08:05;152.63;;;84.97;;
40314;SDS011;26021;45.640;11.302;2023-02-01T16:10:48;138.57;;;78.95;;
40314;SDS011;26021;45.640;11.302;2023-02-01T16:13:16;147.13;;;93.70;;
40314;SDS011;26021;45.640;11.302;2023-02-01T16:15:42;148.80;;;90.57;;
40314;SDS011;26021;45.640;11.302;2023-02-01T16:18:08;148.85;;;88.25;;
40314;SDS011;26021;45.640;11.302;2023-02-01T16:20:38;141.88;;;83.35;;
40314;SDS011;26021;45.640;11.302;2023-02-01T16:23:05;135.63;;;79.80;;
40314;SDS011;26021;45.640;11.302;2023-02-01T16:25:31;134.65;;;81.50;;
40314;SDS011;26021;45.640;11.302;2023-02-01T16:27:57;134.93;;;80.20;;
40314;SDS011;26021;45.640;11.302;2023-02-01T16:30:22;133.25;;;79.47;;
40314;SDS011;26021;45.640;11.302;2023-02-01T16:32:55;139.40;;;80.30;;
40314;SDS011;26021;45.640;11.302;2023-02-01T16:37:53;134.30;;;79.50;;
40314;SDS011;26021;45.640;11.302;2023-02-01T16:40:19;136.85;;;80.78;;
40314;SDS011;26021;45.640;11.302;2023-02-01T16:42:47;154.05;;;89.07;;
40314;SDS011;26021;45.640;11.302;2023-02-01T16:45:15;139.52;;;81.13;;
40314;SDS011;26021;45.640;11.302;2023-02-01T16:47:42;140.00;;;83.55;;
40314;SDS011;26021;45.640;11.302;2023-02-01T16:50:16;134.40;;;79.25;;
40314;SDS011;26021;45.640;11.302;2023-02-01T16:52:43;129.40;;;79.28;;
40314;SDS011;26021;45.640;11.302;2023-02-01T16:55:13;134.93;;;78.45;;
40314;SDS011;26021;45.640;11.302;2023-02-01T16:57:40;137.70;;;79.63;;
40314;SDS011;26021;45.640;11.302;2023-02-01T17:00:07;144.10;;;83.00;;
40314;SDS011;26021;45.640;11.302;2023-02-01T17:02:33;137.48;;;79.53;;
40314;SDS011;26021;45.640;11.302;2023-02-01T17:04:59;136.70;;;77.75;;
40314;SDS011;26021;45.640;11.302;2023-02-01T17:07:24;135.23;;;80.28;;